sensor_id;sensor_type;location;lat;lon;timestamp;P1;durP1;ratioP1;P2;durP2;ratioP2
19739;SDS011;10027;51.066;13.768;2023-02-26T00:00:09;1.00;;;0.80;;
19739;SDS011;10027;51.066;13.768;2023-02-26T00:02:38;2.70;;;1.03;;
19739;SDS011;10027;51.066;13.768;2023-02-26T00:05:05;1.93;;;1.10;;
19739;SDS011;10027;51.066;13.768;2023-02-26T00:07:33;1.17;;;0.87;;
19739;SDS011;10027;51.066;13.768;2023-02-26T00:10:00;1.90;;;1.00;;
19739;SDS011;10027;51.066;13.768;2023-02-26T00:12:28;1.33;;;0.90;;
19739;SDS011;10027;51.066;13.768;2023-02-26T00:14:55;1.77;;;0.73;;
19739;SDS011;10027;51.066;13.768;2023-02-26T00:19:56;0.93;;;0.83;;
19739;SDS011;10027;51.066;13.768;2023-02-26T00:22:23;1.23;;;0.80;;
19739;SDS011;10027;51.066;13.768;2023-02-26T00:24:51;1.40;;;0.90;;
19739;SDS011;10027;51.066;13.768;2023-02-26T00:27:18;1.37;;;0.80;;
19739;SDS011;10027;51.066;13.768;2023-02-26T00:29:45;3.30;;;1.00;;
19739;SDS011;10027;51.066;13.768;2023-02-26T00:32:12;0.93;;;0.90;;
19739;SDS011;10027;51.066;13.768;2023-02-26T00:34:43;1.33;;;0.90;;
19739;SDS011;10027;51.066;13.768;2023-02-26T00:37:27;2.07;;;0.90;;
19739;SDS011;10027;51.066;13.768;2023-02-26T00:40:02;1.47;;;0.93;;
19739;SDS011;10027;51.066;13.768;2023-02-26T00:42:31;0.70;;;0.70;;
19739;SDS011;10027;51.066;13.768;2023-02-26T00:44:59;1.50;;;0.87;;
19739;SDS011;10027;51.066;13.768;2023-02-26T00:50:04;1.10;;;0.70;;
19739;SDS011;10027;51.066;13.768;2023-02-26T00:52:38;1.33;;;0.70;;
19739;SDS011;10027;51.066;13.768;2023-02-26T00:55:07;1.53;;;0.77;;
19739;SDS011;10027;51.066;13.768;2023-02-26T00:57:35;1.77;;;0.80;;
19739;SDS011;10027;51.066;13.768;2023-02-26T01:00:03;1.10;;;0.73;;
19739;SDS011;10027;51.066;13.768;2023-02-26T01:02:35;2.17;;;0.60;;
19739;SDS011;10027;51.066;13.768;2023-02-26T01:05:03;0.70;;;0.70;;
19739;SDS011;10027;51.066;13.768;2023-02-26T01:07:33;1.33;;;0.77;;
19739;SDS011;10027;51.066;13.768;2023-02-26T01:10:03;0.90;;;0.70;;
19739;SDS011;10027;51.066;13.768;2023-02-26T01:12:31;0.73;;;0.70;;
19739;SDS011;10027;51.066;13.768;2023-02-26T01:14:58;1.20;;;0.83;;
19739;SDS011;10027;51.066;13.768;2023-02-26T01:20:15;1.77;;;1.00;;
19739;SDS011;10027;51.066;13.768;2023-02-26T01:25:36;1.37;;;1.17;;
19739;SDS011;10027;51.066;13.768;2023-02-26T01:28:04;1.40;;;0.90;;
19739;SDS011;10027;51.066;13.768;2023-02-26T01:30:32;2.97;;;1.00;;
19739;SDS011;10027;51.066;13.768;2023-02-26T01:35:39;1.57;;;0.90;;
19739;SDS011;10027;51.066;13.768;2023-02-26T01:43:33;1.23;;;0.80;;
19739;SDS011;10027;51.066;13.768;2023-02-26T01:46:04;1.00;;;0.70;;
19739;SDS011;10027;51.066;13.768;2023-02-26T01:48:37;1.60;;;0.90;;
19739;SDS011;10027;51.066;13.768;2023-02-26T01:51:08;1.60;;;1.00;;
19739;SDS011;10027;51.066;13.768;2023-02-26T01:53:36;1.30;;;1.00;;
19739;SDS011;10027;51.066;13.768;2023-02-26T01:56:05;1.10;;;0.90;;
19739;SDS011;10027;51.066;13.768;2023-02-26T01:58:35;1.27;;;1.13;;
19739;SDS011;10027;51.066;13.768;2023-02-26T02:01:02;1.93;;;0.80;;
19739;SDS011;10027;51.066;13.768;2023-02-26T02:03:31;0.97;;;0.90;;
19739;SDS011;10027;51.066;13.768;2023-02-26T02:06:03;1.80;;;1.10;;
19739;SDS011;10027;51.066;13.768;2023-02-26T02:08:32;1.73;;;0.87;;
19739;SDS011;10027;51.066;13.768;2023-02-26T02:11:01;2.50;;;1.40;;
19739;SDS011;10027;51.066;13.768;2023-02-26T02:29:15;1.43;;;1.10;;
19739;SDS011;10027;51.066;13.768;2023-02-26T02:31:54;2.40;;;1.57;;
19739;SDS011;10027;51.066;13.768;2023-02-26T02:37:01;1.60;;;1.13;;
19739;SDS011;10027;51.066;13.768;2023-02-26T02:39:35;2.17;;;1.27;;
19739;SDS011;10027;51.066;13.768;2023-02-26T02:42:21;1.33;;;1.03;;
19739;SDS011;10027;51.066;13.768;2023-02-26T02:44:54;3.20;;;1.57;;
19739;SDS011;10027;51.066;13.768;2023-02-26T02:47:22;2.13;;;1.30;;
19739;SDS011;10027;51.066;13.768;2023-02-26T02:49:53;1.77;;;1.30;;
19739;SDS011;10027;51.066;13.768;2023-02-26T02:52:25;1.13;;;0.90;;
19739;SDS011;10027;51.066;13.768;2023-02-26T02:55:01;1.80;;;1.30;;
19739;SDS011;10027;51.066;13.768;2023-02-26T02:57:39;2.03;;;1.10;;
19739;SDS011;10027;51.066;13.768;2023-02-26T03:00:10;1.30;;;1.10;;
19739;SDS011;10027;51.066;13.768;2023-02-26T03:05:05;1.93;;;1.33;;
19739;SDS011;10027;51.066;13.768;2023-02-26T03:07:34;1.43;;;1.20;;
19739;SDS011;10027;51.066;13.768;2023-02-26T03:10:02;1.90;;;1.10;;
19739;SDS011;10027;51.066;13.768;2023-02-26T03:12:30;1.17;;;1.00;;
19739;SDS011;10027;51.066;13.768;2023-02-26T03:14:58;1.13;;;0.87;;
19739;SDS011;10027;51.066;13.768;2023-02-26T03:24:49;2.07;;;0.93;;
19739;SDS011;10027;51.066;13.768;2023-02-26T03:27:25;1.50;;;1.10;;
19739;SDS011;10027;51.066;13.768;2023-02-26T03:32:35;1.73;;;1.00;;
19739;SDS011;10027;51.066;13.768;2023-02-26T03:37:40;1.40;;;1.30;;
19739;SDS011;10027;51.066;13.768;2023-02-26T03:40:09;1.93;;;1.33;;
19739;SDS011;10027;51.066;13.768;2023-02-26T03:42:49;2.50;;;1.20;;
19739;SDS011;10027;51.066;13.768;2023-02-26T03:45:30;1.87;;;1.43;;
19739;SDS011;10027;51.066;13.768;2023-02-26T03:47:59;3.43;;;1.30;;
19739;SDS011;10027;51.066;13.768;2023-02-26T03:50:31;2.13;;;1.10;;
19739;SDS011;10027;51.066;13.768;2023-02-26T03:52:59;1.23;;;1.10;;
19739;SDS011;10027;51.066;13.768;2023-02-26T03:55:29;1.23;;;1.10;;
19739;SDS011;10027;51.066;13.768;2023-02-26T03:57:57;1.23;;;1.03;;
19739;SDS011;10027;51.066;13.768;2023-02-26T04:00:25;3.20;;;1.33;;
19739;SDS011;10027;51.066;13.768;2023-02-26T04:05:20;1.50;;;0.97;;
19739;SDS011;10027;51.066;13.768;2023-02-26T04:07:48;2.43;;;1.07;;
19739;SDS011;10027;51.066;13.768;2023-02-26T04:10:18;1.87;;;1.20;;
19739;SDS011;10027;51.066;13.768;2023-02-26T04:12:46;1.60;;;1.10;;
19739;SDS011;10027;51.066;13.768;2023-02-26T04:15:13;1.47;;;0.97;;
19739;SDS011;10027;51.066;13.768;2023-02-26T04:17:40;4.37;;;1.20;;
19739;SDS011;10027;51.066;13.768;2023-02-26T04:20:08;1.97;;;1.37;;
19739;SDS011;10027;51.066;13.768;2023-02-26T04:22:35;1.70;;;1.10;;
19739;SDS011;10027;51.066;13.768;2023-02-26T04:25:03;1.20;;;1.10;;
19739;SDS011;10027;51.066;13.768;2023-02-26T04:27:30;2.13;;;1.20;;
19739;SDS011;10027;51.066;13.768;2023-02-26T04:29:57;1.20;;;0.90;;
19739;SDS011;10027;51.066;13.768;2023-02-26T04:32:25;1.40;;;1.00;;
19739;SDS011;10027;51.066;13.768;2023-02-26T04:34:52;3.47;;;0.83;;
19739;SDS011;10027;51.066;13.768;2023-02-26T04:37:19;1.87;;;1.10;;
19739;SDS011;10027;51.066;13.768;2023-02-26T04:39:46;1.53;;;1.00;;
19739;SDS011;10027;51.066;13.768;2023-02-26T04:42:13;2.20;;;0.90;;
19739;SDS011;10027;51.066;13.768;2023-02-26T04:44:40;1.57;;;1.20;;
19739;SDS011;10027;51.066;13.768;2023-02-26T04:47:07;2.57;;;0.93;;
19739;SDS011;10027;51.066;13.768;2023-02-26T04:49:34;7.23;;;1.13;;
19739;SDS011;10027;51.066;13.768;2023-02-26T04:52:01;1.87;;;1.10;;
19739;SDS011;10027;51.066;13.768;2023-02-26T04:54:29;1.37;;;1.00;;
19739;SDS011;10027;51.066;13.768;2023-02-26T04:56:56;1.03;;;0.83;;
19739;SDS011;10027;51.066;13.768;2023-02-26T04:59:23;1.83;;;1.03;;
19739;SDS011;10027;51.066;13.768;2023-02-26T05:01:50;1.50;;;0.80;;
19739;SDS011;10027;51.066;13.768;2023-02-26T05:04:17;1.73;;;1.00;;
19739;SDS011;10027;51.066;13.768;2023-02-26T05:06:44;1.37;;;1.00;;
19739;SDS011;10027;51.066;13.768;2023-02-26T05:09:12;2.07;;;1.10;;
19739;SDS011;10027;51.066;13.768;2023-02-26T05:11:39;1.70;;;1.17;;
19739;SDS011;10027;51.066;13.768;2023-02-26T05:14:06;1.97;;;1.00;;
19739;SDS011;10027;51.066;13.768;2023-02-26T05:16:33;2.93;;;1.10;;
19739;SDS011;10027;51.066;13.768;2023-02-26T05:19:00;3.77;;;1.00;;
19739;SDS011;10027;51.066;13.768;2023-02-26T05:21:27;2.73;;;0.70;;
19739;SDS011;10027;51.066;13.768;2023-02-26T05:23:54;3.90;;;0.87;;
19739;SDS011;10027;51.066;13.768;2023-02-26T05:26:21;1.50;;;0.80;;
19739;SDS011;10027;51.066;13.768;2023-02-26T05:28:50;1.83;;;1.00;;
19739;SDS011;10027;51.066;13.768;2023-02-26T05:31:17;3.93;;;0.93;;
19739;SDS011;10027;51.066;13.768;2023-02-26T05:33:44;4.27;;;0.97;;
19739;SDS011;10027;51.066;13.768;2023-02-26T05:36:11;1.63;;;0.90;;
19739;SDS011;10027;51.066;13.768;2023-02-26T05:38:39;1.23;;;0.87;;
19739;SDS011;10027;51.066;13.768;2023-02-26T05:41:06;2.80;;;0.93;;
19739;SDS011;10027;51.066;13.768;2023-02-26T05:43:33;2.07;;;0.90;;
19739;SDS011;10027;51.066;13.768;2023-02-26T05:46:01;1.83;;;1.00;;
19739;SDS011;10027;51.066;13.768;2023-02-26T05:48:28;2.97;;;1.20;;
19739;SDS011;10027;51.066;13.768;2023-02-26T05:50:55;1.40;;;1.00;;
19739;SDS011;10027;51.066;13.768;2023-02-26T05:53:22;2.57;;;1.10;;
19739;SDS011;10027;51.066;13.768;2023-02-26T05:55:50;1.00;;;0.70;;
19739;SDS011;10027;51.066;13.768;2023-02-26T05:58:18;1.20;;;0.90;;
19739;SDS011;10027;51.066;13.768;2023-02-26T06:00:46;1.80;;;0.90;;
19739;SDS011;10027;51.066;13.768;2023-02-26T06:03:13;3.03;;;1.10;;
19739;SDS011;10027;51.066;13.768;2023-02-26T06:05:40;1.90;;;1.30;;
19739;SDS011;10027;51.066;13.768;2023-02-26T06:08:07;1.93;;;1.00;;
19739;SDS011;10027;51.066;13.768;2023-02-26T06:10:37;1.00;;;0.93;;
19739;SDS011;10027;51.066;13.768;2023-02-26T06:13:04;1.10;;;1.00;;
19739;SDS011;10027;51.066;13.768;2023-02-26T06:15:31;1.57;;;1.13;;
19739;SDS011;10027;51.066;13.768;2023-02-26T06:17:58;3.33;;;1.30;;
19739;SDS011;10027;51.066;13.768;2023-02-26T06:20:25;2.13;;;1.07;;
19739;SDS011;10027;51.066;13.768;2023-02-26T06:22:53;7.70;;;1.00;;
19739;SDS011;10027;51.066;13.768;2023-02-26T06:25:20;3.43;;;1.10;;
19739;SDS011;10027;51.066;13.768;2023-02-26T06:27:47;2.40;;;1.20;;
19739;SDS011;10027;51.066;13.768;2023-02-26T06:30:14;1.70;;;1.10;;
19739;SDS011;10027;51.066;13.768;2023-02-26T06:32:43;1.27;;;1.07;;
19739;SDS011;10027;51.066;13.768;2023-02-26T06:35:10;4.00;;;1.73;;
19739;SDS011;10027;51.066;13.768;2023-02-26T06:37:37;4.07;;;2.53;;
19739;SDS011;10027;51.066;13.768;2023-02-26T06:40:04;3.03;;;2.13;;
19739;SDS011;10027;51.066;13.768;2023-02-26T06:42:32;4.43;;;2.40;;
19739;SDS011;10027;51.066;13.768;2023-02-26T06:44:59;3.40;;;1.73;;
19739;SDS011;10027;51.066;13.768;2023-02-26T06:47:26;3.13;;;1.40;;
19739;SDS011;10027;51.066;13.768;2023-02-26T06:49:53;4.07;;;1.87;;
19739;SDS011;10027;51.066;13.768;2023-02-26T06:52:20;4.40;;;1.93;;
19739;SDS011;10027;51.066;13.768;2023-02-26T06:54:47;4.83;;;2.50;;
19739;SDS011;10027;51.066;13.768;2023-02-26T06:57:14;2.83;;;1.90;;
19739;SDS011;10027;51.066;13.768;2023-02-26T06:59:41;5.20;;;2.53;;
19739;SDS011;10027;51.066;13.768;2023-02-26T07:02:12;7.10;;;2.20;;
19739;SDS011;10027;51.066;13.768;2023-02-26T07:04:41;2.47;;;1.53;;
19739;SDS011;10027;51.066;13.768;2023-02-26T07:07:08;1.40;;;1.20;;
19739;SDS011;10027;51.066;13.768;2023-02-26T07:09:35;3.07;;;1.40;;
19739;SDS011;10027;51.066;13.768;2023-02-26T07:12:03;2.40;;;1.70;;
19739;SDS011;10027;51.066;13.768;2023-02-26T07:14:32;1.50;;;1.30;;
19739;SDS011;10027;51.066;13.768;2023-02-26T07:17:00;2.43;;;1.40;;
19739;SDS011;10027;51.066;13.768;2023-02-26T07:19:27;1.50;;;1.20;;
19739;SDS011;10027;51.066;13.768;2023-02-26T07:21:54;1.97;;;1.23;;
19739;SDS011;10027;51.066;13.768;2023-02-26T07:24:22;3.87;;;1.30;;
19739;SDS011;10027;51.066;13.768;2023-02-26T07:26:49;1.77;;;1.33;;
19739;SDS011;10027;51.066;13.768;2023-02-26T07:29:16;2.50;;;1.50;;
19739;SDS011;10027;51.066;13.768;2023-02-26T07:31:43;2.40;;;1.40;;
19739;SDS011;10027;51.066;13.768;2023-02-26T07:34:10;2.07;;;1.53;;
19739;SDS011;10027;51.066;13.768;2023-02-26T07:36:37;3.30;;;1.33;;
19739;SDS011;10027;51.066;13.768;2023-02-26T07:39:04;3.90;;;1.50;;
19739;SDS011;10027;51.066;13.768;2023-02-26T07:41:31;3.30;;;1.50;;
19739;SDS011;10027;51.066;13.768;2023-02-26T07:43:58;3.93;;;1.70;;
19739;SDS011;10027;51.066;13.768;2023-02-26T07:46:26;1.63;;;1.40;;
19739;SDS011;10027;51.066;13.768;2023-02-26T07:48:54;2.53;;;1.60;;
19739;SDS011;10027;51.066;13.768;2023-02-26T07:51:21;1.27;;;1.10;;
19739;SDS011;10027;51.066;13.768;2023-02-26T07:53:48;3.83;;;1.60;;
19739;SDS011;10027;51.066;13.768;2023-02-26T07:56:15;2.17;;;1.40;;
19739;SDS011;10027;51.066;13.768;2023-02-26T07:58:42;3.20;;;1.50;;
19739;SDS011;10027;51.066;13.768;2023-02-26T08:01:09;3.47;;;2.10;;
19739;SDS011;10027;51.066;13.768;2023-02-26T08:03:36;2.67;;;1.47;;
19739;SDS011;10027;51.066;13.768;2023-02-26T08:06:04;2.47;;;1.70;;
19739;SDS011;10027;51.066;13.768;2023-02-26T08:08:31;2.53;;;1.60;;
19739;SDS011;10027;51.066;13.768;2023-02-26T08:10:59;2.50;;;1.40;;
19739;SDS011;10027;51.066;13.768;2023-02-26T08:13:26;4.77;;;1.63;;
19739;SDS011;10027;51.066;13.768;2023-02-26T08:15:53;2.93;;;1.30;;
19739;SDS011;10027;51.066;13.768;2023-02-26T08:18:20;4.23;;;1.80;;
19739;SDS011;10027;51.066;13.768;2023-02-26T08:20:49;3.20;;;1.20;;
19739;SDS011;10027;51.066;13.768;2023-02-26T08:23:17;2.00;;;1.40;;
19739;SDS011;10027;51.066;13.768;2023-02-26T08:25:44;1.70;;;1.30;;
19739;SDS011;10027;51.066;13.768;2023-02-26T08:28:11;1.30;;;1.00;;
19739;SDS011;10027;51.066;13.768;2023-02-26T08:30:38;5.07;;;1.30;;
19739;SDS011;10027;51.066;13.768;2023-02-26T08:33:06;1.87;;;1.23;;
19739;SDS011;10027;51.066;13.768;2023-02-26T08:35:33;1.40;;;0.70;;
19739;SDS011;10027;51.066;13.768;2023-02-26T08:38:00;3.63;;;1.93;;
19739;SDS011;10027;51.066;13.768;2023-02-26T08:40:27;10.50;;;2.30;;
19739;SDS011;10027;51.066;13.768;2023-02-26T08:42:54;3.20;;;1.67;;
19739;SDS011;10027;51.066;13.768;2023-02-26T08:45:25;1.73;;;1.20;;
19739;SDS011;10027;51.066;13.768;2023-02-26T08:47:52;3.83;;;1.70;;
19739;SDS011;10027;51.066;13.768;2023-02-26T08:50:23;1.93;;;1.20;;
19739;SDS011;10027;51.066;13.768;2023-02-26T08:52:50;4.93;;;1.63;;
19739;SDS011;10027;51.066;13.768;2023-02-26T08:55:17;2.27;;;1.30;;
19739;SDS011;10027;51.066;13.768;2023-02-26T08:57:44;2.00;;;1.40;;
19739;SDS011;10027;51.066;13.768;2023-02-26T09:00:11;2.70;;;1.50;;
19739;SDS011;10027;51.066;13.768;2023-02-26T09:02:41;2.47;;;1.07;;
19739;SDS011;10027;51.066;13.768;2023-02-26T09:05:08;1.57;;;1.07;;
19739;SDS011;10027;51.066;13.768;2023-02-26T09:07:37;2.50;;;1.23;;
19739;SDS011;10027;51.066;13.768;2023-02-26T09:10:05;1.73;;;1.03;;
19739;SDS011;10027;51.066;13.768;2023-02-26T09:12:32;2.23;;;1.40;;
19739;SDS011;10027;51.066;13.768;2023-02-26T09:15:05;1.60;;;1.00;;
19739;SDS011;10027;51.066;13.768;2023-02-26T09:17:32;1.97;;;1.03;;
19739;SDS011;10027;51.066;13.768;2023-02-26T09:19:59;2.63;;;1.30;;
19739;SDS011;10027;51.066;13.768;2023-02-26T09:22:27;1.83;;;1.00;;
19739;SDS011;10027;51.066;13.768;2023-02-26T09:24:54;3.03;;;1.10;;
19739;SDS011;10027;51.066;13.768;2023-02-26T09:27:21;2.33;;;1.07;;
19739;SDS011;10027;51.066;13.768;2023-02-26T09:29:48;1.83;;;1.03;;
19739;SDS011;10027;51.066;13.768;2023-02-26T09:32:15;1.07;;;0.60;;
19739;SDS011;10027;51.066;13.768;2023-02-26T09:34:42;1.00;;;0.70;;
19739;SDS011;10027;51.066;13.768;2023-02-26T09:37:10;1.73;;;1.00;;
19739;SDS011;10027;51.066;13.768;2023-02-26T09:39:37;1.80;;;1.07;;
19739;SDS011;10027;51.066;13.768;2023-02-26T09:44:47;1.00;;;0.83;;
19739;SDS011;10027;51.066;13.768;2023-02-26T09:47:21;1.30;;;0.83;;
19739;SDS011;10027;51.066;13.768;2023-02-26T09:49:52;1.77;;;0.97;;
19739;SDS011;10027;51.066;13.768;2023-02-26T09:54:51;3.90;;;1.10;;
19739;SDS011;10027;51.066;13.768;2023-02-26T09:57:20;1.83;;;0.80;;
19739;SDS011;10027;51.066;13.768;2023-02-26T09:59:50;0.80;;;0.70;;
19739;SDS011;10027;51.066;13.768;2023-02-26T10:12:42;1.97;;;0.87;;
19739;SDS011;10027;51.066;13.768;2023-02-26T10:15:12;3.07;;;1.33;;
19739;SDS011;10027;51.066;13.768;2023-02-26T10:20:18;2.43;;;1.17;;
19739;SDS011;10027;51.066;13.768;2023-02-26T10:25:23;2.37;;;0.80;;
19739;SDS011;10027;51.066;13.768;2023-02-26T10:30:33;1.70;;;0.77;;
19739;SDS011;10027;51.066;13.768;2023-02-26T10:35:36;1.43;;;0.87;;
19739;SDS011;10027;51.066;13.768;2023-02-26T10:38:11;2.43;;;1.03;;
19739;SDS011;10027;51.066;13.768;2023-02-26T10:43:21;1.70;;;0.70;;
19739;SDS011;10027;51.066;13.768;2023-02-26T10:48:19;2.07;;;1.17;;
19739;SDS011;10027;51.066;13.768;2023-02-26T10:50:51;3.10;;;1.40;;
19739;SDS011;10027;51.066;13.768;2023-02-26T10:53:19;3.10;;;1.47;;
19739;SDS011;10027;51.066;13.768;2023-02-26T10:55:55;2.57;;;0.73;;
19739;SDS011;10027;51.066;13.768;2023-02-26T10:58:23;1.67;;;1.10;;
19739;SDS011;10027;51.066;13.768;2023-02-26T11:00:54;1.73;;;0.80;;
19739;SDS011;10027;51.066;13.768;2023-02-26T11:03:28;1.80;;;1.07;;
19739;SDS011;10027;51.066;13.768;2023-02-26T11:05:56;1.63;;;0.90;;
19739;SDS011;10027;51.066;13.768;2023-02-26T11:08:28;1.33;;;0.90;;
19739;SDS011;10027;51.066;13.768;2023-02-26T11:10:57;2.07;;;0.77;;
19739;SDS011;10027;51.066;13.768;2023-02-26T11:13:26;1.07;;;0.80;;
19739;SDS011;10027;51.066;13.768;2023-02-26T11:15:55;2.27;;;0.70;;
19739;SDS011;10027;51.066;13.768;2023-02-26T11:18:24;2.90;;;0.73;;
19739;SDS011;10027;51.066;13.768;2023-02-26T11:20:55;1.40;;;0.80;;
19739;SDS011;10027;51.066;13.768;2023-02-26T11:23:25;0.80;;;0.57;;
19739;SDS011;10027;51.066;13.768;2023-02-26T11:26:02;1.40;;;0.60;;
19739;SDS011;10027;51.066;13.768;2023-02-26T11:28:33;2.17;;;0.83;;
19739;SDS011;10027;51.066;13.768;2023-02-26T11:31:03;0.87;;;0.40;;
19739;SDS011;10027;51.066;13.768;2023-02-26T11:33:33;1.13;;;0.70;;
19739;SDS011;10027;51.066;13.768;2023-02-26T11:36:02;0.90;;;0.80;;
19739;SDS011;10027;51.066;13.768;2023-02-26T11:38:31;0.60;;;0.50;;
19739;SDS011;10027;51.066;13.768;2023-02-26T11:40:58;0.90;;;0.50;;
19739;SDS011;10027;51.066;13.768;2023-02-26T11:43:33;1.97;;;0.80;;
19739;SDS011;10027;51.066;13.768;2023-02-26T11:46:01;1.03;;;0.63;;
19739;SDS011;10027;51.066;13.768;2023-02-26T11:48:41;2.63;;;0.90;;
19739;SDS011;10027;51.066;13.768;2023-02-26T11:51:11;3.63;;;1.53;;
19739;SDS011;10027;51.066;13.768;2023-02-26T11:53:58;1.17;;;0.80;;
19739;SDS011;10027;51.066;13.768;2023-02-26T11:58:56;1.47;;;0.80;;
19739;SDS011;10027;51.066;13.768;2023-02-26T12:01:26;2.27;;;1.37;;
19739;SDS011;10027;51.066;13.768;2023-02-26T12:03:56;2.23;;;0.97;;
19739;SDS011;10027;51.066;13.768;2023-02-26T12:06:24;1.70;;;0.73;;
19739;SDS011;10027;51.066;13.768;2023-02-26T12:08:51;2.23;;;0.50;;
19739;SDS011;10027;51.066;13.768;2023-02-26T12:14:02;2.40;;;0.70;;
19739;SDS011;10027;51.066;13.768;2023-02-26T12:26:44;1.33;;;0.70;;
19739;SDS011;10027;51.066;13.768;2023-02-26T12:32:14;3.17;;;0.77;;
19739;SDS011;10027;51.066;13.768;2023-02-26T12:35:00;2.37;;;0.70;;
19739;SDS011;10027;51.066;13.768;2023-02-26T12:42:49;3.40;;;0.60;;
19739;SDS011;10027;51.066;13.768;2023-02-26T12:53:30;1.37;;;0.70;;
19739;SDS011;10027;51.066;13.768;2023-02-26T13:01:33;0.73;;;0.40;;
19739;SDS011;10027;51.066;13.768;2023-02-26T13:06:50;2.40;;;1.03;;
19739;SDS011;10027;51.066;13.768;2023-02-26T13:14:32;0.70;;;0.50;;
19739;SDS011;10027;51.066;13.768;2023-02-26T13:19:51;1.03;;;0.53;;
19739;SDS011;10027;51.066;13.768;2023-02-26T13:27:16;2.30;;;0.60;;
19739;SDS011;10027;51.066;13.768;2023-02-26T13:29:46;2.97;;;0.70;;
19739;SDS011;10027;51.066;13.768;2023-02-26T13:32:18;1.40;;;0.60;;
19739;SDS011;10027;51.066;13.768;2023-02-26T13:34:49;1.07;;;0.47;;
19739;SDS011;10027;51.066;13.768;2023-02-26T13:37:23;2.23;;;0.57;;
19739;SDS011;10027;51.066;13.768;2023-02-26T13:39:58;0.63;;;0.40;;
19739;SDS011;10027;51.066;13.768;2023-02-26T13:42:29;2.00;;;0.53;;
19739;SDS011;10027;51.066;13.768;2023-02-26T13:45:06;2.70;;;0.50;;
19739;SDS011;10027;51.066;13.768;2023-02-26T13:50:33;1.33;;;0.63;;
19739;SDS011;10027;51.066;13.768;2023-02-26T13:53:03;1.00;;;0.57;;
19739;SDS011;10027;51.066;13.768;2023-02-26T13:55:35;2.13;;;0.60;;
19739;SDS011;10027;51.066;13.768;2023-02-26T14:03:39;1.40;;;0.30;;
19739;SDS011;10027;51.066;13.768;2023-02-26T14:16:31;2.30;;;0.60;;
19739;SDS011;10027;51.066;13.768;2023-02-26T14:19:43;2.33;;;0.70;;
19739;SDS011;10027;51.066;13.768;2023-02-26T14:21:51;1.50;;;1.00;;
19739;SDS011;10027;51.066;13.768;2023-02-26T14:26:47;2.47;;;1.00;;
19739;SDS011;10027;51.066;13.768;2023-02-26T14:29:18;1.57;;;0.77;;
19739;SDS011;10027;51.066;13.768;2023-02-26T14:31:49;2.40;;;0.60;;
19739;SDS011;10027;51.066;13.768;2023-02-26T14:36:48;4.47;;;0.60;;
19739;SDS011;10027;51.066;13.768;2023-02-26T14:42:03;1.00;;;0.60;;
19739;SDS011;10027;51.066;13.768;2023-02-26T14:44:33;0.67;;;0.30;;
19739;SDS011;10027;51.066;13.768;2023-02-26T14:47:01;0.83;;;0.50;;
19739;SDS011;10027;51.066;13.768;2023-02-26T14:49:34;1.10;;;0.40;;
19739;SDS011;10027;51.066;13.768;2023-02-26T14:58:16;2.00;;;0.47;;
19739;SDS011;10027;51.066;13.768;2023-02-26T15:00:52;1.40;;;0.27;;
19739;SDS011;10027;51.066;13.768;2023-02-26T15:26:03;0.67;;;0.30;;
19739;SDS011;10027;51.066;13.768;2023-02-26T15:28:34;0.77;;;0.43;;
19739;SDS011;10027;51.066;13.768;2023-02-26T15:31:03;1.40;;;0.60;;
19739;SDS011;10027;51.066;13.768;2023-02-26T15:33:32;1.13;;;0.60;;
19739;SDS011;10027;51.066;13.768;2023-02-26T15:35:59;1.43;;;0.60;;
19739;SDS011;10027;51.066;13.768;2023-02-26T15:38:27;1.03;;;0.60;;
19739;SDS011;10027;51.066;13.768;2023-02-26T15:40:55;0.77;;;0.60;;
19739;SDS011;10027;51.066;13.768;2023-02-26T15:43:24;0.70;;;0.60;;
19739;SDS011;10027;51.066;13.768;2023-02-26T15:45:53;3.53;;;0.80;;
19739;SDS011;10027;51.066;13.768;2023-02-26T15:48:26;2.93;;;0.70;;
19739;SDS011;10027;51.066;13.768;2023-02-26T15:50:55;0.70;;;0.47;;
19739;SDS011;10027;51.066;13.768;2023-02-26T15:53:28;1.93;;;0.60;;
19739;SDS011;10027;51.066;13.768;2023-02-26T15:55:57;1.90;;;0.90;;
19739;SDS011;10027;51.066;13.768;2023-02-26T15:58:35;1.93;;;0.80;;
19739;SDS011;10027;51.066;13.768;2023-02-26T16:01:03;5.57;;;0.83;;
19739;SDS011;10027;51.066;13.768;2023-02-26T16:03:32;2.37;;;0.80;;
19739;SDS011;10027;51.066;13.768;2023-02-26T16:06:00;3.63;;;0.93;;
19739;SDS011;10027;51.066;13.768;2023-02-26T16:08:27;3.63;;;0.80;;
19739;SDS011;10027;51.066;13.768;2023-02-26T16:10:55;1.93;;;0.70;;
19739;SDS011;10027;51.066;13.768;2023-02-26T16:13:27;1.40;;;0.80;;
19739;SDS011;10027;51.066;13.768;2023-02-26T16:15:57;1.80;;;0.83;;
19739;SDS011;10027;51.066;13.768;2023-02-26T16:18:25;2.43;;;0.80;;
19739;SDS011;10027;51.066;13.768;2023-02-26T16:20:54;1.60;;;0.80;;
19739;SDS011;10027;51.066;13.768;2023-02-26T16:23:24;1.50;;;0.80;;
19739;SDS011;10027;51.066;13.768;2023-02-26T16:25:57;2.53;;;0.80;;
19739;SDS011;10027;51.066;13.768;2023-02-26T16:28:30;2.57;;;1.23;;
19739;SDS011;10027;51.066;13.768;2023-02-26T16:30:59;7.53;;;1.80;;
19739;SDS011;10027;51.066;13.768;2023-02-26T16:33:30;6.83;;;3.30;;
19739;SDS011;10027;51.066;13.768;2023-02-26T16:36:11;4.67;;;2.70;;
19739;SDS011;10027;51.066;13.768;2023-02-26T16:41:11;2.60;;;1.47;;
19739;SDS011;10027;51.066;13.768;2023-02-26T16:43:50;2.03;;;1.30;;
19739;SDS011;10027;51.066;13.768;2023-02-26T16:46:33;3.97;;;1.67;;
19739;SDS011;10027;51.066;13.768;2023-02-26T16:49:04;6.50;;;2.00;;
19739;SDS011;10027;51.066;13.768;2023-02-26T16:51:33;5.70;;;1.93;;
19739;SDS011;10027;51.066;13.768;2023-02-26T16:54:07;6.97;;;1.97;;
19739;SDS011;10027;51.066;13.768;2023-02-26T16:56:37;4.13;;;1.83;;
19739;SDS011;10027;51.066;13.768;2023-02-26T17:01:55;3.90;;;1.97;;
19739;SDS011;10027;51.066;13.768;2023-02-26T17:04:24;3.10;;;1.70;;
19739;SDS011;10027;51.066;13.768;2023-02-26T17:06:51;3.57;;;1.80;;
19739;SDS011;10027;51.066;13.768;2023-02-26T17:12:05;5.80;;;2.10;;
19739;SDS011;10027;51.066;13.768;2023-02-26T17:14:37;2.53;;;1.33;;
19739;SDS011;10027;51.066;13.768;2023-02-26T17:17:06;3.30;;;1.43;;
19739;SDS011;10027;51.066;13.768;2023-02-26T17:19:33;5.53;;;1.50;;
19739;SDS011;10027;51.066;13.768;2023-02-26T17:22:00;9.83;;;2.73;;
19739;SDS011;10027;51.066;13.768;2023-02-26T17:24:30;10.93;;;3.50;;
19739;SDS011;10027;51.066;13.768;2023-02-26T17:26:57;7.90;;;2.67;;
19739;SDS011;10027;51.066;13.768;2023-02-26T17:29:38;8.53;;;3.93;;
19739;SDS011;10027;51.066;13.768;2023-02-26T17:32:09;2.70;;;1.80;;
19739;SDS011;10027;51.066;13.768;2023-02-26T17:34:37;1.40;;;1.10;;
19739;SDS011;10027;51.066;13.768;2023-02-26T17:37:04;1.70;;;1.00;;
19739;SDS011;10027;51.066;13.768;2023-02-26T17:39:32;2.90;;;1.20;;
19739;SDS011;10027;51.066;13.768;2023-02-26T17:42:00;3.93;;;1.90;;
19739;SDS011;10027;51.066;13.768;2023-02-26T17:44:27;3.10;;;1.83;;
19739;SDS011;10027;51.066;13.768;2023-02-26T17:46:54;5.90;;;2.00;;
19739;SDS011;10027;51.066;13.768;2023-02-26T17:49:21;2.67;;;1.40;;
19739;SDS011;10027;51.066;13.768;2023-02-26T17:51:48;2.57;;;1.73;;
19739;SDS011;10027;51.066;13.768;2023-02-26T17:54:18;2.80;;;1.80;;
19739;SDS011;10027;51.066;13.768;2023-02-26T17:56:46;3.47;;;1.47;;
19739;SDS011;10027;51.066;13.768;2023-02-26T17:59:14;2.70;;;1.37;;
19739;SDS011;10027;51.066;13.768;2023-02-26T18:01:41;2.20;;;1.60;;
19739;SDS011;10027;51.066;13.768;2023-02-26T18:04:08;2.40;;;1.40;;
19739;SDS011;10027;51.066;13.768;2023-02-26T18:06:36;2.20;;;1.60;;